Time;durP1;ratioP1;P1;durP2;ratioP2;P2;SDS_P1;SDS_P2;PMS_P1;PMS_P2;Temp;Humidity;BMP_temperature;BMP_pressure;BME280_temperature;BME280_humidity;BME280_pressure;Samples;Min_cycle;Max_cycle;Signal;HPM_P1;HPM_P2
2022/01/16 00:00:16;;;;;;;3.50;2.42;;;3.30;42.50;;;;;;5076748;28;20498;-50
2022/01/16 00:05:25;;;;;;;4.10;2.53;;;3.30;42.60;;;;;;5076704;28;20172;-50
2022/01/16 00:07:51;;;;;;;4.18;2.47;;;3.80;42.70;;;;;;5076678;28;20161;-50
2022/01/16 00:10:18;;;;;;;9.98;2.55;;;3.20;43.10;;;;;;5076824;28;20167;-50
2022/01/16 00:12:48;;;;;;;2.50;2.10;;;3.20;42.20;;;;;;5075273;28;20536;-50
2022/01/16 00:15:19;;;;;;;3.20;2.90;;;3.20;42.30;;;;;;5076501;28;20168;-50
2022/01/16 00:18:09;;;;;;;3.38;3.00;;;3.20;42.20;;;;;;5075247;28;20683;-50
2022/01/16 00:20:35;;;;;;;2.03;1.55;;;3.20;42.30;;;;;;5076232;28;20694;-50
2022/01/16 00:23:04;;;;;;;2.60;2.40;;;3.20;42.30;;;;;;5076265;28;20171;-50
2022/01/16 00:25:30;;;;;;;8.02;2.63;;;3.10;42.50;;;;;;5076376;28;20177;-50
2022/01/16 00:27:56;;;;;;;1.93;1.47;;;3.90;42.90;;;;;;5076301;28;20221;-50
2022/01/16 00:30:22;;;;;;;4.43;3.07;;;3.10;42.40;;;;;;5076176;28;20929;-50
2022/01/16 00:32:48;;;;;;;7.03;1.67;;;3.00;42.30;;;;;;5076187;28;20165;-50
2022/01/16 00:35:14;;;;;;;2.60;1.70;;;2.90;43.10;;;;;;5076096;28;20165;-50
2022/01/16 00:37:41;;;;;;;2.95;1.48;;;2.90;42.30;;;;;;5074771;28;20766;-50
2022/01/16 00:40:09;;;;;;;3.95;2.17;;;2.90;42.40;;;;;;5076026;28;20251;-50
2022/01/16 00:42:35;;;;;;;2.33;2.13;;;2.90;42.40;;;;;;5075938;28;20169;-50
2022/01/16 00:45:01;;;;;;;3.50;3.00;;;2.90;42.30;;;;;;5075914;28;20265;-50
2022/01/16 00:47:26;;;;;;;3.87;2.87;;;2.90;42.30;;;;;;5075708;28;20480;-50
2022/01/16 00:49:52;;;;;;;2.57;1.80;;;2.90;42.50;;;;;;5075916;28;20905;-50
2022/01/16 00:52:19;;;;;;;7.30;4.00;;;2.90;42.40;;;;;;5075974;28;20190;-50
2022/01/16 00:54:45;;;;;;;4.55;1.55;;;2.90;42.40;;;;;;5075869;28;20177;-50
2022/01/16 00:57:10;;;;;;;4.50;2.40;;;2.90;42.50;;;;;;5075694;28;20250;-50
2022/01/16 00:59:36;;;;;;;2.13;1.17;;;4.10;43.20;;;;;;5074445;28;20192;-50
2022/01/16 01:02:02;;;;;;;2.70;2.50;;;2.90;42.60;;;;;;5074471;28;20180;-50
2022/01/16 01:04:28;;;;;;;4.13;3.58;;;2.90;42.50;;;;;;5075824;28;20218;-50
2022/01/16 01:06:54;;;;;;;3.77;1.90;;;2.90;42.60;;;;;;5075654;28;20639;-50
2022/01/16 01:09:19;;;;;;;5.60;2.60;;;2.90;42.60;;;;;;5075619;28;20167;-50
2022/01/16 01:11:49;;;;;;;15.87;2.23;;;2.90;42.50;;;;;;5075480;28;20168;-50
2022/01/16 01:14:24;;;;;;;5.15;3.33;;;4.10;43.10;;;;;;5075388;28;20494;-50
2022/01/16 01:16:53;;;;;;;2.50;1.73;;;2.90;42.70;;;;;;5075503;28;20155;-50
2022/01/16 01:19:21;;;;;;;3.88;2.35;;;2.90;42.60;;;;;;5075370;28;20220;-50
2022/01/16 01:21:48;;;;;;;8.02;2.90;;;2.90;42.60;;;;;;5075400;28;20160;-50
2022/01/16 01:24:13;;;;;;;6.65;3.90;;;2.90;42.50;;;;;;5075103;28;20289;-50
2022/01/16 01:26:49;;;;;;;4.80;2.03;;;2.90;42.50;;;;;;5075245;28;20218;-50
2022/01/16 01:29:19;;;;;;;3.20;2.90;;;2.90;42.50;;;;;;5075433;28;20171;-50
2022/01/16 01:31:45;;;;;;;2.95;2.67;;;2.90;42.70;;;;;;5075126;28;20186;-50
2022/01/16 01:34:10;;;;;;;4.10;2.67;;;2.80;42.40;;;;;;5057091;28;20165;-50
2022/01/16 01:36:36;;;;;;;1.80;1.30;;;2.80;42.50;;;;;;5074938;28;20418;-50
2022/01/16 01:39:02;;;;;;;3.60;2.43;;;2.80;42.60;;;;;;5074952;28;20704;-50
2022/01/16 01:41:29;;;;;;;3.30;1.60;;;2.80;42.50;;;;;;5074881;28;20167;-50
2022/01/16 01:52:07;;;;;;;5.63;2.05;;;2.80;42.70;;;;;;5074668;28;20282;-50
2022/01/16 01:54:33;;;;;;;4.97;3.03;;;2.80;42.70;;;;;;5074699;28;20587;-50
2022/01/16 01:57:00;;;;;;;8.10;1.97;;;2.80;42.60;;;;;;5074542;28;20174;-50
2022/01/16 01:59:27;;;;;;;10.57;2.85;;;3.90;43.20;;;;;;5073943;28;20517;-50
2022/01/16 02:01:53;;;;;;;3.70;2.25;;;2.70;42.50;;;;;;5074511;28;20239;-50
2022/01/16 02:04:19;;;;;;;5.78;5.22;;;2.60;42.50;;;;;;5074344;28;20191;-50
2022/01/16 02:06:45;;;;;;;7.32;4.38;;;2.70;42.70;;;;;;5074398;28;20628;-50
2022/01/16 02:09:11;;;;;;;1.70;1.43;;;2.70;42.70;;;;;;5074300;28;20178;-50
2022/01/16 02:11:37;;;;;;;3.93;2.70;;;2.70;42.80;;;;;;5074353;28;20172;-50
2022/01/16 02:14:13;;;;;;;3.87;2.43;;;2.70;42.80;;;;;;5072937;28;20253;-50
2022/01/16 02:28:12;;;;;;;2.05;1.55;;;2.60;42.50;;;;;;5074044;28;20207;-50
2022/01/16 02:35:38;;;;;;;8.20;3.47;;;3.40;43.00;;;;;;5074247;28;20221;-51
2022/01/16 02:38:05;;;;;;;4.75;2.90;;;2.60;42.50;;;;;;5073773;28;20179;-50
2022/01/16 02:40:31;;;;;;;13.95;2.40;;;2.50;42.60;;;;;;5073827;28;20182;-50
2022/01/16 02:42:57;;;;;;;2.60;2.40;;;2.50;42.70;;;;;;5073691;28;20175;-50
2022/01/16 02:45:34;;;;;;;11.13;3.93;;;2.50;42.50;;;;;;5072656;28;20219;-50
2022/01/16 02:48:06;;;;;;;2.85;2.22;;;2.50;42.60;;;;;;5073996;28;20519;-50
2022/01/16 02:50:34;;;;;;;10.80;2.67;;;2.50;42.70;;;;;;5073739;28;20168;-50
2022/01/16 02:53:00;;;;;;;5.90;2.97;;;2.50;42.60;;;;;;5073698;28;20592;-51
2022/01/16 02:55:26;;;;;;;5.03;4.53;;;2.50;42.40;;;;;;5073644;28;20250;-50
2022/01/16 02:57:53;;;;;;;4.28;2.10;;;2.50;42.50;;;;;;5073619;28;20425;-50
2022/01/16 03:00:21;;;;;;;3.08;1.63;;;2.40;42.60;;;;;;5073694;28;20178;-50
2022/01/16 03:02:48;;;;;;;2.38;1.95;;;2.50;42.60;;;;;;5073664;28;20167;-50
2022/01/16 03:05:14;;;;;;;4.03;1.92;;;2.50;42.50;;;;;;5073444;28;20201;-50
2022/01/16 03:07:42;;;;;;;3.05;1.80;;;2.50;42.50;;;;;;5073496;28;20569;-51
2022/01/16 03:12:51;;;;;;;2.45;1.90;;;2.50;42.50;;;;;;5073534;28;20560;-50
2022/01/16 03:15:18;;;;;;;2.33;1.88;;;2.50;42.50;;;;;;5073652;28;20167;-50
2022/01/16 03:23:12;;;;;;;3.65;2.50;;;2.30;42.70;;;;;;5073334;28;20301;-50
2022/01/16 03:25:37;;;;;;;3.85;1.95;;;2.30;42.60;;;;;;5073502;28;20253;-50
2022/01/16 03:28:03;;;;;;;6.97;2.73;;;2.40;42.60;;;;;;5073273;28;20196;-50
2022/01/16 03:30:29;;;;;;;3.50;1.70;;;2.30;42.60;;;;;;5073395;28;20159;-50
2022/01/16 03:32:55;;;;;;;3.58;2.17;;;2.30;42.40;;;;;;5073261;28;20970;-50
2022/01/16 03:35:21;;;;;;;5.82;2.15;;;2.30;42.60;;;;;;5071963;28;20214;-50
2022/01/16 03:37:47;;;;;;;3.10;2.30;;;2.30;42.70;;;;;;5073180;28;20168;-50
2022/01/16 03:40:13;;;;;;;2.80;1.60;;;2.30;42.70;;;;;;5073249;28;20183;-50
2022/01/16 03:42:40;;;;;;;3.28;2.97;;;2.30;42.60;;;;;;5073321;28;20161;-50
2022/01/16 03:45:07;;;;;;;9.93;2.58;;;2.30;42.60;;;;;;5073111;28;20199;-50
2022/01/16 03:47:32;;;;;;;4.63;3.38;;;2.30;42.60;;;;;;5073232;28;20172;-50
2022/01/16 03:49:58;;;;;;;2.00;1.67;;;3.20;42.90;;;;;;5071838;28;20179;-50
2022/01/16 03:52:24;;;;;;;2.97;2.40;;;2.30;43.20;;;;;;5071815;28;20220;-50
2022/01/16 03:54:50;;;;;;;7.20;1.77;;;2.30;42.60;;;;;;5072991;28;20455;-50
2022/01/16 03:57:16;;;;;;;2.75;1.95;;;2.20;42.50;;;;;;5072968;28;20159;-50
2022/01/16 03:59:42;;;;;;;2.75;2.47;;;2.20;42.50;;;;;;5073366;28;20183;-51
2022/01/16 04:02:08;;;;;;;2.50;1.60;;;3.20;43.10;;;;;;5072953;28;20700;-50
2022/01/16 04:04:33;;;;;;;6.60;2.45;;;2.20;42.70;;;;;;5072871;28;20274;-51
2022/01/16 04:07:00;;;;;;;2.87;2.53;;;2.30;42.70;;;;;;5072999;28;20198;-51
2022/01/16 04:09:26;;;;;;;4.75;4.15;;;2.30;42.80;;;;;;5071720;28;20172;-51
2022/01/16 04:11:55;;;;;;;7.20;1.55;;;2.60;42.90;;;;;;5072889;28;20707;-51
2022/01/16 04:17:08;;;;;;;5.28;2.92;;;2.30;42.80;;;;;;5071714;28;20304;-51
2022/01/16 04:19:35;;;;;;;4.10;3.40;;;2.30;42.60;;;;;;5071704;28;20227;-51
2022/01/16 04:22:01;;;;;;;16.75;2.78;;;2.30;42.70;;;;;;5074538;28;20148;-51
2022/01/16 04:24:27;;;;;;;3.20;1.60;;;2.30;42.50;;;;;;5076369;28;20280;-50
2022/01/16 04:26:52;;;;;;;3.60;1.90;;;2.30;42.70;;;;;;5076347;28;20257;-51
2022/01/16 04:29:18;;;;;;;1.67;1.13;;;2.30;42.60;;;;;;5076382;28;20168;-50
2022/01/16 04:31:44;;;;;;;2.53;1.70;;;2.30;42.60;;;;;;5074956;28;20633;-51
2022/01/16 04:34:09;;;;;;;4.93;3.00;;;2.30;42.60;;;;;;5074908;28;20171;-51
2022/01/16 04:36:37;;;;;;;1.67;1.50;;;2.20;42.30;;;;;;5076190;28;20164;-51
2022/01/16 04:39:08;;;;;;;4.85;2.83;;;2.20;42.40;;;;;;5076302;28;20215;-51
2022/01/16 04:44:18;;;;;;;2.75;2.00;;;2.20;42.60;;;;;;5075990;28;20705;-51
2022/01/16 04:46:46;;;;;;;3.77;2.80;;;2.20;42.60;;;;;;5075963;28;20177;-50
2022/01/16 04:49:12;;;;;;;3.28;2.97;;;2.20;42.50;;;;;;5075909;28;20172;-51
2022/01/16 04:51:38;;;;;;;2.65;1.60;;;2.20;42.60;;;;;;5076043;28;20278;-51
2022/01/16 04:54:04;;;;;;;3.30;1.67;;;2.10;42.50;;;;;;5075871;28;20687;-51
2022/01/16 04:56:29;;;;;;;2.13;1.67;;;2.10;42.30;;;;;;5075972;28;20224;-51
2022/01/16 04:58:55;;;;;;;3.43;1.90;;;2.10;42.20;;;;;;5075777;28;20414;-51
2022/01/16 05:01:22;;;;;;;2.38;1.40;;;3.50;42.90;;;;;;5075789;28;20179;-51
2022/01/16 05:03:48;;;;;;;2.85;1.30;;;1.90;42.20;;;;;;5074266;28;20200;-51
2022/01/16 05:06:14;;;;;;;1.60;1.20;;;1.90;42.20;;;;;;5075779;28;20304;-51
2022/01/16 05:08:39;;;;;;;4.35;2.50;;;1.90;42.20;;;;;;5075527;28;20417;-51
2022/01/16 05:11:08;;;;;;;6.60;2.03;;;1.90;42.50;;;;;;5075531;28;20172;-51
2022/01/16 05:18:43;;;;;;;9.05;2.38;;;2.30;42.70;;;;;;5075411;28;20186;-51
2022/01/16 05:21:10;;;;;;;4.40;3.07;;;1.90;42.40;;;;;;5075081;28;20675;-50
2022/01/16 05:23:35;;;;;;;3.00;2.78;;;1.80;42.30;;;;;;5075210;28;20298;-51
2022/01/16 05:26:03;;;;;;;3.20;1.93;;;1.90;42.30;;;;;;5075210;28;20648;-50
2022/01/16 05:28:30;;;;;;;19.08;4.38;;;1.80;42.30;;;;;;5075155;28;20931;-50
2022/01/16 05:30:56;;;;;;;2.08;1.27;;;1.80;42.30;;;;;;5075115;28;20179;-50
2022/01/16 05:33:22;;;;;;;5.22;2.17;;;1.80;42.30;;;;;;5073979;28;20220;-50
2022/01/16 05:35:48;;;;;;;8.50;2.72;;;1.80;42.20;;;;;;5075067;28;20172;-50
2022/01/16 05:38:14;;;;;;;6.17;4.63;;;1.80;42.30;;;;;;5075038;28;20228;-50
2022/01/16 05:40:40;;;;;;;1.97;1.27;;;1.80;42.30;;;;;;5075060;28;20776;-50
2022/01/16 05:43:06;;;;;;;5.57;1.83;;;2.20;42.50;;;;;;5074795;28;20409;-50
2022/01/16 05:45:32;;;;;;;1.40;1.27;;;1.80;42.30;;;;;;5074906;28;20175;-50
2022/01/16 05:47:58;;;;;;;3.05;2.47;;;1.80;42.10;;;;;;5074745;28;20170;-50
2022/01/16 05:50:42;;;;;;;4.07;2.70;;;1.80;42.30;;;;;;5074813;28;20180;-50
2022/01/16 05:53:08;;;;;;;4.35;2.75;;;1.80;42.30;;;;;;5074697;28;20398;-50
2022/01/16 05:55:36;;;;;;;2.73;2.00;;;1.80;42.30;;;;;;5074677;28;20694;-50
2022/01/16 05:58:06;;;;;;;4.28;1.83;;;1.80;42.30;;;;;;5074806;28;20184;-50
2022/01/16 06:00:33;;;;;;;1.27;0.65;;;1.80;42.20;;;;;;5073485;28;20171;-50
2022/01/16 06:02:59;;;;;;;3.47;1.55;;;1.70;43.00;;;;;;5074456;28;20194;-50
2022/01/16 06:05:25;;;;;;;2.03;1.67;;;1.70;42.30;;;;;;5074470;28;20658;-50
2022/01/16 06:07:55;;;;;;;3.20;1.63;;;1.70;42.30;;;;;;5074404;28;20410;-50
2022/01/16 06:10:21;;;;;;;2.53;1.80;;;1.80;42.30;;;;;;5074272;28;20532;-50
2022/01/16 06:12:47;;;;;;;3.60;2.90;;;1.80;42.20;;;;;;5074330;28;20199;-50
2022/01/16 06:15:13;;;;;;;3.20;2.23;;;1.70;42.30;;;;;;5074466;28;20162;-50
2022/01/16 06:17:39;;;;;;;3.63;2.80;;;1.70;42.00;;;;;;5074558;28;20414;-51
2022/01/16 06:20:06;;;;;;;7.27;2.10;;;1.60;41.60;;;;;;5072547;28;20227;-51
2022/01/16 06:22:31;;;;;;;2.78;1.48;;;1.60;41.70;;;;;;5074266;28;20174;-51
2022/01/16 06:24:58;;;;;;;6.70;3.10;;;1.50;41.60;;;;;;5073984;28;20202;-51
2022/01/16 06:27:24;;;;;;;1.80;1.50;;;1.50;42.00;;;;;;5074001;28;20167;-51
2022/01/16 06:29:50;;;;;;;2.40;1.80;;;1.40;42.00;;;;;;5073957;28;20177;-51
2022/01/16 06:32:15;;;;;;;13.73;2.30;;;2.60;42.60;;;;;;5074159;28;20168;-50
2022/01/16 06:34:41;;;;;;;7.03;2.03;;;1.40;42.20;;;;;;5074182;28;20201;-50
2022/01/16 06:37:07;;;;;;;5.10;2.45;;;1.40;42.30;;;;;;5073819;28;20667;-50
2022/01/16 06:39:34;;;;;;;5.90;2.30;;;1.50;42.50;;;;;;5073845;28;20184;-51
2022/01/16 06:41:59;;;;;;;2.35;2.15;;;1.50;42.40;;;;;;5073741;28;20178;-50
2022/01/16 06:44:25;;;;;;;3.23;2.40;;;1.50;42.40;;;;;;5073496;28;20557;-50
2022/01/16 06:46:51;;;;;;;2.17;1.77;;;1.50;42.10;;;;;;5073743;28;20634;-50
2022/01/16 06:49:17;;;;;;;2.13;1.23;;;1.50;42.20;;;;;;5073700;28;20178;-50
2022/01/16 06:51:42;;;;;;;3.33;1.60;;;1.50;42.80;;;;;;5073682;28;20233;-50
2022/01/16 06:54:08;;;;;;;3.27;2.47;;;1.40;42.20;;;;;;5073630;28;20174;-50
2022/01/16 06:56:34;;;;;;;2.70;1.23;;;1.50;42.40;;;;;;5073593;28;20166;-50
2022/01/16 06:58:59;;;;;;;6.33;1.80;;;2.00;42.40;;;;;;5073549;28;20601;-50
2022/01/16 07:01:26;;;;;;;2.10;1.90;;;1.40;42.00;;;;;;5073519;28;20163;-50
2022/01/16 07:03:54;;;;;;;5.60;3.13;;;1.40;42.20;;;;;;5073449;28;20213;-50
2022/01/16 07:06:20;;;;;;;9.95;4.20;;;2.40;43.00;;;;;;5073519;28;20599;-50
2022/01/16 07:08:46;;;;;;;1.42;1.10;;;1.50;42.60;;;;;;5072437;28;20205;-51
2022/01/16 07:11:12;;;;;;;9.87;6.70;;;1.50;42.80;;;;;;5073468;28;20203;-50
2022/01/16 07:13:38;;;;;;;4.60;2.40;;;1.60;42.60;;;;;;5073399;28;20412;-50
2022/01/16 07:16:04;;;;;;;2.20;1.53;;;1.60;42.70;;;;;;5073480;28;20186;-50
2022/01/16 07:18:30;;;;;;;2.35;1.65;;;1.60;42.60;;;;;;5073399;28;20171;-50
2022/01/16 07:20:56;;;;;;;7.63;2.70;;;1.70;42.80;;;;;;5073298;28;20290;-51
2022/01/16 07:23:21;;;;;;;3.67;3.13;;;1.80;42.60;;;;;;5073281;28;20178;-50
2022/01/16 07:25:48;;;;;;;2.53;1.90;;;1.80;42.60;;;;;;5072050;28;20171;-50
2022/01/16 07:28:14;;;;;;;2.58;2.25;;;1.80;42.50;;;;;;5073317;28;20192;-50
2022/01/16 07:30:40;;;;;;;2.55;1.50;;;1.80;42.30;;;;;;5073548;28;20508;-50
2022/01/16 07:33:07;;;;;;;5.13;2.67;;;1.80;42.20;;;;;;5073338;28;20193;-50
2022/01/16 07:35:34;;;;;;;3.55;2.63;;;1.80;42.30;;;;;;5073188;28;20176;-50
2022/01/16 07:38:00;;;;;;;3.95;2.95;;;1.90;42.40;;;;;;5071925;28;20175;-50
2022/01/16 07:40:27;;;;;;;3.15;1.85;;;1.90;42.50;;;;;;5073208;28;20254;-50
2022/01/16 07:42:54;;;;;;;2.22;1.38;;;2.00;42.50;;;;;;5073248;28;20172;-50
2022/01/16 07:45:20;;;;;;;3.00;2.70;;;2.10;42.60;;;;;;5073029;28;20200;-50
2022/01/16 07:47:46;;;;;;;3.55;2.70;;;2.20;42.60;;;;;;5073207;28;20635;-50
2022/01/16 07:50:13;;;;;;;2.55;1.80;;;2.20;42.50;;;;;;5073004;28;20744;-50
2022/01/16 07:52:39;;;;;;;2.45;1.33;;;2.30;42.50;;;;;;5073099;28;20163;-50
2022/01/16 07:55:05;;;;;;;9.67;3.43;;;2.40;42.60;;;;;;5073065;28;20175;-50
2022/01/16 07:57:31;;;;;;;4.63;4.15;;;2.50;42.70;;;;;;5075643;28;20217;-50
2022/01/16 07:59:57;;;;;;;5.57;3.00;;;2.60;42.60;;;;;;5076964;28;20179;-50
2022/01/16 08:02:22;;;;;;;3.80;2.20;;;2.80;42.80;;;;;;5076710;28;20539;-50
2022/01/16 08:04:48;;;;;;;3.87;3.57;;;2.90;42.90;;;;;;5076777;28;20282;-50
2022/01/16 08:07:14;;;;;;;3.57;3.27;;;2.90;42.80;;;;;;5076694;28;20267;-50
2022/01/16 08:09:40;;;;;;;5.87;2.53;;;3.50;43.30;;;;;;5076860;28;20186;-50
2022/01/16 08:12:07;;;;;;;3.40;2.72;;;3.10;43.20;;;;;;5075338;28;20178;-50
2022/01/16 08:14:34;;;;;;;3.75;2.88;;;3.20;42.90;;;;;;5076396;28;20642;-50
2022/01/16 08:17:00;;;;;;;15.88;5.05;;;3.30;43.00;;;;;;5076509;28;20193;-50
2022/01/16 08:19:27;;;;;;;4.32;2.88;;;3.40;43.00;;;;;;5076234;28;20215;-50
2022/01/16 08:21:54;;;;;;;6.07;3.45;;;3.50;43.20;;;;;;5075174;28;20262;-50
2022/01/16 08:24:20;;;;;;;6.65;2.85;;;3.70;43.30;;;;;;5076213;28;20224;-51
2022/01/16 08:26:46;;;;;;;4.50;3.65;;;4.50;43.60;;;;;;5076596;28;20181;-50
2022/01/16 08:29:12;;;;;;;5.75;4.38;;;4.10;43.00;;;;;;5076334;28;20613;-53
2022/01/16 08:31:38;;;;;;;9.90;3.77;;;4.30;43.00;;;;;;5074995;28;20221;-50
2022/01/16 08:34:03;;;;;;;5.77;3.97;;;4.50;42.90;;;;;;5076170;28;20627;-50
2022/01/16 08:36:29;;;;;;;3.67;3.13;;;4.80;42.80;;;;;;5076151;28;20171;-51
2022/01/16 08:38:55;;;;;;;7.50;4.60;;;5.40;43.00;;;;;;5076209;28;20173;-50
2022/01/16 08:41:21;;;;;;;6.00;4.57;;;5.20;42.80;;;;;;5076127;28;20165;-51
2022/01/16 08:43:47;;;;;;;9.07;5.38;;;5.40;42.60;;;;;;5076381;28;20999;-50
2022/01/16 08:46:14;;;;;;;7.13;4.47;;;6.40;42.90;;;;;;5075967;28;20180;-50
2022/01/16 08:48:40;;;;;;;6.88;6.13;;;5.70;42.30;;;;;;5074671;28;20918;-50
2022/01/16 08:51:06;;;;;;;7.53;6.13;;;5.90;42.30;;;;;;5075924;28;20177;-50
2022/01/16 08:53:32;;;;;;;6.00;3.67;;;6.20;42.30;;;;;;5075748;28;20153;-50
2022/01/16 08:55:59;;;;;;;8.37;5.43;;;6.50;42.10;;;;;;5075795;28;20628;-50
2022/01/16 08:58:25;;;;;;;8.52;4.80;;;6.70;41.70;;;;;;5074499;28;20434;-51
2022/01/16 09:00:51;;;;;;;15.32;5.00;;;6.80;41.30;;;;;;5075680;28;20223;-50
2022/01/16 09:03:19;;;;;;;4.57;3.80;;;6.90;41.20;;;;;;5075609;28;20192;-50
2022/01/16 09:05:45;;;;;;;5.90;4.00;;;7.00;40.70;;;;;;5075681;28;20173;-50
2022/01/16 09:08:11;;;;;;;7.63;4.97;;;7.20;40.60;;;;;;5075377;28;20180;-50
2022/01/16 09:10:37;;;;;;;8.73;5.47;;;7.20;40.60;;;;;;5075679;28;20628;-50
2022/01/16 09:13:04;;;;;;;5.97;3.05;;;7.30;40.90;;;;;;5075727;28;20587;-50
2022/01/16 09:15:30;;;;;;;10.57;3.78;;;7.30;40.60;;;;;;5075320;28;20165;-50
2022/01/16 09:17:56;;;;;;;4.83;2.70;;;7.30;40.40;;;;;;5075390;28;20646;-50
2022/01/16 09:20:22;;;;;;;6.23;3.97;;;7.30;40.80;;;;;;5073631;28;20217;-50
2022/01/16 09:22:49;;;;;;;11.80;4.80;;;7.20;40.80;;;;;;5075444;28;20169;-50
2022/01/16 09:25:17;;;;;;;4.90;4.10;;;7.10;41.20;;;;;;5075184;28;20201;-50
2022/01/16 09:27:43;;;;;;;6.43;4.15;;;7.10;41.30;;;;;;5075156;28;20540;-50
2022/01/16 09:30:11;;;;;;;4.72;3.92;;;7.00;41.30;;;;;;5074447;28;20188;-50
2022/01/16 09:32:37;;;;;;;6.07;4.38;;;6.90;41.60;;;;;;5073828;28;20172;-50
2022/01/16 09:35:05;;;;;;;4.90;3.20;;;6.90;41.50;;;;;;5075302;28;20187;-50
2022/01/16 09:37:31;;;;;;;4.82;2.67;;;7.00;41.30;;;;;;5075168;28;20172;-50
2022/01/16 09:39:58;;;;;;;4.13;3.10;;;7.00;41.70;;;;;;5074886;28;20565;-50
2022/01/16 09:42:24;;;;;;;12.35;5.88;;;7.00;42.00;;;;;;5074904;28;20411;-50
2022/01/16 09:44:51;;;;;;;9.75;4.00;;;7.10;42.20;;;;;;5073866;28;20295;-50
2022/01/16 09:47:17;;;;;;;7.43;5.25;;;7.30;42.60;;;;;;5074688;28;20169;-50
2022/01/16 09:49:44;;;;;;;6.47;4.55;;;7.40;42.60;;;;;;5074786;28;20179;-50
2022/01/16 09:52:09;;;;;;;7.38;3.58;;;7.50;42.40;;;;;;5074781;28;20569;-50
2022/01/16 09:54:38;;;;;;;4.87;3.03;;;7.70;42.30;;;;;;5073302;28;20263;-50
2022/01/16 09:57:06;;;;;;;8.80;5.35;;;7.80;41.10;;;;;;5074668;28;20164;-50
2022/01/16 09:59:32;;;;;;;8.45;5.22;;;8.00;41.60;;;;;;5074756;28;20209;-50
2022/01/16 10:01:58;;;;;;;9.07;5.40;;;8.00;40.80;;;;;;5074605;28;20561;-50
2022/01/16 10:04:36;;;;;;;7.43;4.40;;;8.00;40.90;;;;;;5074386;28;20347;-50
2022/01/16 10:07:14;;;;;;;6.10;3.63;;;8.10;40.30;;;;;;5074598;28;20160;-50
2022/01/16 10:09:42;;;;;;;6.45;4.20;;;8.00;39.90;;;;;;5074674;28;20157;-50
2022/01/16 10:12:19;;;;;;;6.80;3.53;;;8.00;40.90;;;;;;5074259;28;20167;-50
2022/01/16 10:14:52;;;;;;;7.40;4.47;;;8.10;41.00;;;;;;5072922;28;20608;-50
2022/01/16 10:17:20;;;;;;;8.13;4.00;;;8.50;40.70;;;;;;5074417;28;20153;-50
2022/01/16 10:20:07;;;;;;;8.50;4.78;;;9.00;40.40;;;;;;5073357;28;20212;-51
2022/01/16 10:22:47;;;;;;;12.25;4.82;;;9.30;39.70;;;;;;5073794;28;20673;-50
2022/01/16 10:25:14;;;;;;;6.80;3.80;;;9.60;37.30;;;;;;5074100;28;20239;-50
2022/01/16 10:27:43;;;;;;;15.15;5.55;;;9.90;37.30;;;;;;5074001;28;20193;-50
2022/01/16 10:30:13;;;;;;;11.45;4.70;;;10.30;37.60;;;;;;5074103;28;20188;-50
2022/01/16 10:32:44;;;;;;;9.65;5.60;;;10.60;36.60;;;;;;5073983;28;20511;-50
2022/01/16 10:35:17;;;;;;;12.13;7.90;;;10.60;35.70;;;;;;5072644;28;20621;-50
2022/01/16 10:37:48;;;;;;;10.27;5.38;;;10.80;35.80;;;;;;5074174;28;20178;-50
2022/01/16 10:40:23;;;;;;;8.82;4.00;;;10.90;35.60;;;;;;5072569;28;20176;-50
2022/01/16 10:42:55;;;;;;;7.45;5.20;;;11.10;35.00;;;;;;5073835;28;20606;-50
2022/01/16 10:45:29;;;;;;;10.65;5.57;;;11.70;35.70;;;;;;5073629;28;20283;-50
2022/01/16 10:47:57;;;;;;;7.55;4.68;;;12.30;34.80;;;;;;5073683;28;20607;-50
2022/01/16 10:50:25;;;;;;;6.03;3.70;;;12.90;33.90;;;;;;5073575;28;20734;-50
2022/01/16 10:52:55;;;;;;;6.47;3.90;;;13.10;31.80;;;;;;5073637;28;20183;-50
2022/01/16 10:55:32;;;;;;;11.65;5.53;;;13.20;30.60;;;;;;5073685;28;20170;-50
2022/01/16 10:58:08;;;;;;;7.95;4.10;;;13.10;31.70;;;;;;5073847;28;20164;-50
2022/01/16 11:00:35;;;;;;;12.68;4.05;;;13.10;32.40;;;;;;5073620;28;20157;-50
2022/01/16 11:03:03;;;;;;;5.60;3.65;;;13.10;30.90;;;;;;5073459;28;20183;-50
2022/01/16 11:05:37;;;;;;;3.95;3.25;;;13.10;31.60;;;;;;5072190;28;20556;-50
2022/01/16 11:08:07;;;;;;;3.65;2.13;;;12.80;31.30;;;;;;5073629;28;20192;-50
2022/01/16 11:10:35;;;;;;;5.18;2.90;;;12.20;30.90;;;;;;5072806;28;20212;-50
2022/01/16 11:13:21;;;;;;;6.38;2.53;;;11.70;32.70;;;;;;5073694;28;20245;-50
2022/01/16 11:15:52;;;;;;;3.75;2.40;;;11.10;33.60;;;;;;5073442;28;20140;-50
2022/01/16 11:18:21;;;;;;;3.28;2.35;;;10.90;34.50;;;;;;5073593;28;20187;-50
2022/01/16 11:21:32;;;;;;;4.70;1.90;;;10.80;34.80;;;;;;5073161;28;20228;-50
2022/01/16 11:26:15;;;;;;;2.13;1.60;;;10.20;35.40;;;;;;5073315;28;20157;-50
2022/01/16 11:28:41;;;;;;;4.60;2.45;;;9.90;36.00;;;;;;5073211;28;20170;-50
2022/01/16 11:31:10;;;;;;;2.22;1.10;;;9.70;36.40;;;;;;5073678;28;20188;-50
2022/01/16 11:33:37;;;;;;;1.75;1.02;;;9.70;36.60;;;;;;5077465;28;20668;-50
2022/01/16 11:36:20;;;;;;;4.05;2.05;;;9.50;37.00;;;;;;5077549;28;20179;-50
2022/01/16 11:39:01;;;;;;;5.05;1.80;;;9.30;37.20;;;;;;5077568;28;20165;-50
2022/01/16 11:41:38;;;;;;;4.25;2.30;;;9.00;37.80;;;;;;5077460;28;20172;-50
2022/01/16 11:44:31;;;;;;;2.40;1.10;;;8.90;38.10;;;;;;5077332;28;20210;-50
2022/01/16 11:47:03;;;;;;;1.90;1.00;;;8.80;38.60;;;;;;5074684;28;20198;-50
2022/01/16 11:49:43;;;;;;;2.20;1.17;;;8.60;39.10;;;;;;5077235;28;20167;-50
2022/01/16 11:52:15;;;;;;;2.72;1.95;;;8.40;39.40;;;;;;5077033;28;20170;-50
2022/01/16 11:54:43;;;;;;;3.88;1.98;;;8.20;39.70;;;;;;5077085;28;20179;-50
2022/01/16 11:57:31;;;;;;;2.95;1.55;;;8.20;40.10;;;;;;5076798;28;20181;-50
2022/01/16 12:00:41;;;;;;;11.05;2.78;;;8.10;40.20;;;;;;5076877;28;20210;-50
2022/01/16 12:03:34;;;;;;;5.32;1.55;;;8.00;40.50;;;;;;5074395;28;20192;-50
2022/01/16 12:06:31;;;;;;;3.08;1.63;;;7.90;40.70;;;;;;5077029;28;20174;-50
2022/01/16 12:08:59;;;;;;;2.10;1.42;;;7.70;41.10;;;;;;5076672;28;20195;-50
2022/01/16 12:11:36;;;;;;;5.90;1.52;;;7.50;41.60;;;;;;5076733;28;20185;-50
2022/01/16 12:14:02;;;;;;;2.97;1.75;;;7.40;41.90;;;;;;5076853;28;20247;-50
2022/01/16 12:16:32;;;;;;;2.50;1.00;;;7.30;42.50;;;;;;5076617;28;20164;-50
2022/01/16 12:19:37;;;;;;;2.75;1.50;;;7.20;42.60;;;;;;5076511;28;20218;-50
2022/01/16 12:22:07;;;;;;;3.95;2.17;;;7.30;42.50;;;;;;5076310;28;20172;-50
2022/01/16 12:24:45;;;;;;;2.55;1.70;;;7.40;42.10;;;;;;5076650;28;20206;-50
2022/01/16 12:27:50;;;;;;;2.53;1.40;;;7.40;41.90;;;;;;5076369;28;20180;-50
2022/01/16 12:30:20;;;;;;;3.00;1.60;;;7.20;42.20;;;;;;5054071;28;20181;-50
2022/01/16 12:32:59;;;;;;;4.25;1.90;;;7.10;42.70;;;;;;5054413;28;20181;-50
2022/01/16 12:35:54;;;;;;;4.75;1.38;;;7.00;42.90;;;;;;5054313;28;20679;-50
2022/01/16 12:38:33;;;;;;;1.90;1.17;;;6.80;43.80;;;;;;5002175;28;20201;-50
2022/01/16 12:41:34;;;;;;;2.42;2.05;;;6.80;43.60;;;;;;5054047;28;20203;-50
2022/01/16 12:44:02;;;;;;;3.47;1.65;;;7.00;43.50;;;;;;5053480;28;20627;-50
2022/01/16 12:46:40;;;;;;;4.70;2.13;;;7.00;43.80;;;;;;5054158;28;20184;-50
2022/01/16 12:49:14;;;;;;;5.63;2.75;;;6.90;43.90;;;;;;5054131;28;20173;-50
2022/01/16 12:51:42;;;;;;;3.35;1.48;;;7.00;43.60;;;;;;5053885;28;20169;-50
2022/01/16 12:54:09;;;;;;;1.98;1.73;;;7.00;43.90;;;;;;5053974;28;20570;-50
2022/01/16 12:56:43;;;;;;;3.58;3.10;;;6.90;43.90;;;;;;5053828;28;20174;-50
2022/01/16 12:59:18;;;;;;;1.83;0.98;;;6.90;43.90;;;;;;5053671;28;20208;-50
2022/01/16 13:01:53;;;;;;;2.83;1.33;;;7.00;43.90;;;;;;5071478;28;20181;-50
2022/01/16 13:04:33;;;;;;;3.17;1.38;;;6.90;44.00;;;;;;5075726;28;20188;-50
2022/01/16 13:07:13;;;;;;;3.92;1.88;;;6.90;43.90;;;;;;5075654;28;20180;-50
2022/01/16 13:09:39;;;;;;;2.47;1.77;;;7.00;43.70;;;;;;5075618;28;20168;-50
2022/01/16 13:12:07;;;;;;;8.50;3.67;;;7.00;43.80;;;;;;5075572;28;20644;-50
2022/01/16 13:14:37;;;;;;;4.03;1.85;;;6.80;44.30;;;;;;5075486;28;20176;-50
2022/01/16 13:17:08;;;;;;;3.45;1.75;;;6.60;44.90;;;;;;5075419;28;20169;-50
2022/01/16 13:22:23;;;;;;;7.95;2.10;;;6.70;44.60;;;;;;5075304;28;20177;-50
2022/01/16 13:24:55;;;;;;;7.20;2.58;;;6.70;44.60;;;;;;5075359;28;20189;-50
2022/01/16 13:27:24;;;;;;;4.28;2.60;;;6.80;44.30;;;;;;5075519;28;20181;-50
2022/01/16 13:29:55;;;;;;;4.75;2.30;;;6.60;44.70;;;;;;5075318;28;20221;-50
2022/01/16 13:32:27;;;;;;;3.95;1.80;;;6.50;45.00;;;;;;5075254;28;20251;-50
2022/01/16 13:34:54;;;;;;;2.50;1.92;;;6.50;45.10;;;;;;5075340;28;20553;-50
2022/01/16 13:37:27;;;;;;;5.03;3.28;;;6.50;45.40;;;;;;5073963;28;20183;-50
2022/01/16 13:40:01;;;;;;;4.43;2.30;;;6.40;45.40;;;;;;5074944;28;20163;-50
2022/01/16 13:45:39;;;;;;;2.58;1.70;;;6.20;45.80;;;;;;5074847;28;20236;-50
2022/01/16 13:48:21;;;;;;;5.03;1.80;;;6.30;45.70;;;;;;5075047;28;20169;-50
2022/01/16 13:50:48;;;;;;;5.45;3.42;;;6.40;45.40;;;;;;5074844;28;20161;-50
2022/01/16 13:53:14;;;;;;;7.00;3.53;;;6.20;45.60;;;;;;5074442;28;20230;-50
2022/01/16 13:55:59;;;;;;;6.40;3.30;;;6.30;45.40;;;;;;5073999;28;20566;-51
2022/01/16 13:58:42;;;;;;;8.43;2.85;;;6.40;45.10;;;;;;5073322;28;20200;-50